sensor_id;sensor_type;location;lat;lon;timestamp;P1;durP1;ratioP1;P2;durP2;ratioP2
22883;SDS011;13386;24.786;110.488;2023-06-10T00:00:53;45.28;;;17.08;;
22883;SDS011;13386;24.786;110.488;2023-06-10T00:03:24;45.47;;;17.33;;
22883;SDS011;13386;24.786;110.488;2023-06-10T00:05:55;42.50;;;16.05;;
22883;SDS011;13386;24.786;110.488;2023-06-10T00:08:27;44.70;;;16.00;;
22883;SDS011;13386;24.786;110.488;2023-06-10T00:10:58;36.85;;;15.80;;
22883;SDS011;13386;24.786;110.488;2023-06-10T00:13:28;38.03;;;15.75;;
22883;SDS011;13386;24.786;110.488;2023-06-10T00:15:58;46.05;;;16.52;;
22883;SDS011;13386;24.786;110.488;2023-06-10T00:18:28;47.53;;;16.95;;
22883;SDS011;13386;24.786;110.488;2023-06-10T00:20:59;41.17;;;15.70;;
22883;SDS011;13386;24.786;110.488;2023-06-10T00:23:33;38.42;;;15.35;;
22883;SDS011;13386;24.786;110.488;2023-06-10T00:26:04;46.80;;;16.77;;
22883;SDS011;13386;24.786;110.488;2023-06-10T00:28:35;42.88;;;17.15;;
22883;SDS011;13386;24.786;110.488;2023-06-10T00:31:05;41.28;;;16.20;;
22883;SDS011;13386;24.786;110.488;2023-06-10T00:33:35;41.45;;;16.05;;
22883;SDS011;13386;24.786;110.488;2023-06-10T00:36:05;40.75;;;15.88;;
22883;SDS011;13386;24.786;110.488;2023-06-10T00:38:37;43.83;;;16.15;;
22883;SDS011;13386;24.786;110.488;2023-06-10T00:41:09;42.92;;;15.95;;
22883;SDS011;13386;24.786;110.488;2023-06-10T00:43:39;38.40;;;15.80;;
22883;SDS011;13386;24.786;110.488;2023-06-10T00:46:10;53.03;;;17.50;;
22883;SDS011;13386;24.786;110.488;2023-06-10T00:48:40;48.42;;;17.38;;
22883;SDS011;13386;24.786;110.488;2023-06-10T00:51:11;39.03;;;16.35;;
22883;SDS011;13386;24.786;110.488;2023-06-10T00:53:44;35.60;;;15.57;;
22883;SDS011;13386;24.786;110.488;2023-06-10T00:56:14;36.60;;;15.13;;
22883;SDS011;13386;24.786;110.488;2023-06-10T00:58:45;41.28;;;15.40;;
22883;SDS011;13386;24.786;110.488;2023-06-10T01:01:16;32.95;;;15.60;;
22883;SDS011;13386;24.786;110.488;2023-06-10T01:03:46;37.55;;;15.50;;
22883;SDS011;13386;24.786;110.488;2023-06-10T01:06:19;35.78;;;15.68;;
22883;SDS011;13386;24.786;110.488;2023-06-10T01:08:55;32.90;;;14.38;;
22883;SDS011;13386;24.786;110.488;2023-06-10T01:11:28;36.50;;;15.88;;
22883;SDS011;13386;24.786;110.488;2023-06-10T01:14:00;35.28;;;16.15;;
22883;SDS011;13386;24.786;110.488;2023-06-10T01:16:30;35.58;;;15.38;;
22883;SDS011;13386;24.786;110.488;2023-06-10T01:19:03;31.63;;;15.05;;
22883;SDS011;13386;24.786;110.488;2023-06-10T01:21:36;35.75;;;15.57;;
22883;SDS011;13386;24.786;110.488;2023-06-10T01:24:07;24.35;;;13.52;;
22883;SDS011;13386;24.786;110.488;2023-06-10T01:26:39;31.20;;;14.45;;
22883;SDS011;13386;24.786;110.488;2023-06-10T01:29:11;26.48;;;12.93;;
22883;SDS011;13386;24.786;110.488;2023-06-10T01:34:16;31.20;;;14.15;;
22883;SDS011;13386;24.786;110.488;2023-06-10T01:36:51;27.20;;;13.13;;
22883;SDS011;13386;24.786;110.488;2023-06-10T01:39:22;31.75;;;14.27;;
22883;SDS011;13386;24.786;110.488;2023-06-10T01:41:53;29.67;;;13.57;;
22883;SDS011;13386;24.786;110.488;2023-06-10T01:44:24;30.73;;;13.68;;
22883;SDS011;13386;24.786;110.488;2023-06-10T01:46:54;30.98;;;14.38;;
22883;SDS011;13386;24.786;110.488;2023-06-10T01:49:25;29.27;;;13.45;;
22883;SDS011;13386;24.786;110.488;2023-06-10T01:51:58;31.58;;;13.63;;
22883;SDS011;13386;24.786;110.488;2023-06-10T01:54:28;34.83;;;13.80;;
22883;SDS011;13386;24.786;110.488;2023-06-10T01:57:02;28.58;;;13.07;;
22883;SDS011;13386;24.786;110.488;2023-06-10T01:59:34;30.63;;;13.50;;
22883;SDS011;13386;24.786;110.488;2023-06-10T02:02:05;29.77;;;14.60;;
22883;SDS011;13386;24.786;110.488;2023-06-10T02:04:35;28.20;;;13.40;;
22883;SDS011;13386;24.786;110.488;2023-06-10T02:07:07;33.25;;;13.50;;
22883;SDS011;13386;24.786;110.488;2023-06-10T02:09:39;34.33;;;14.23;;
22883;SDS011;13386;24.786;110.488;2023-06-10T02:12:09;30.15;;;13.88;;
22883;SDS011;13386;24.786;110.488;2023-06-10T02:14:39;34.05;;;14.50;;
22883;SDS011;13386;24.786;110.488;2023-06-10T02:17:10;29.23;;;13.43;;
22883;SDS011;13386;24.786;110.488;2023-06-10T02:19:42;31.15;;;14.02;;
22883;SDS011;13386;24.786;110.488;2023-06-10T02:22:24;32.80;;;13.70;;
22883;SDS011;13386;24.786;110.488;2023-06-10T02:24:55;29.63;;;13.38;;
22883;SDS011;13386;24.786;110.488;2023-06-10T02:27:25;27.98;;;13.60;;
22883;SDS011;13386;24.786;110.488;2023-06-10T02:29:57;28.98;;;13.05;;
22883;SDS011;13386;24.786;110.488;2023-06-10T02:32:30;26.67;;;12.95;;
22883;SDS011;13386;24.786;110.488;2023-06-10T02:35:00;29.10;;;12.73;;
22883;SDS011;13386;24.786;110.488;2023-06-10T02:37:40;35.30;;;14.05;;
22883;SDS011;13386;24.786;110.488;2023-06-10T02:40:12;28.15;;;13.25;;
22883;SDS011;13386;24.786;110.488;2023-06-10T02:42:43;25.77;;;12.82;;
22883;SDS011;13386;24.786;110.488;2023-06-10T02:45:14;27.10;;;11.73;;
22883;SDS011;13386;24.786;110.488;2023-06-10T02:47:45;24.48;;;12.05;;
22883;SDS011;13386;24.786;110.488;2023-06-10T02:50:18;28.23;;;12.02;;
22883;SDS011;13386;24.786;110.488;2023-06-10T02:53:22;25.38;;;12.18;;
22883;SDS011;13386;24.786;110.488;2023-06-10T02:55:58;29.02;;;12.85;;
22883;SDS011;13386;24.786;110.488;2023-06-10T02:58:28;26.73;;;13.00;;
22883;SDS011;13386;24.786;110.488;2023-06-10T03:00:59;29.50;;;12.82;;
22883;SDS011;13386;24.786;110.488;2023-06-10T03:03:39;30.13;;;13.18;;
22883;SDS011;13386;24.786;110.488;2023-06-10T03:06:15;27.73;;;12.57;;
22883;SDS011;13386;24.786;110.488;2023-06-10T03:08:52;22.85;;;12.43;;
22883;SDS011;13386;24.786;110.488;2023-06-10T03:11:22;27.80;;;12.05;;
22883;SDS011;13386;24.786;110.488;2023-06-10T03:13:55;25.63;;;12.10;;
22883;SDS011;13386;24.786;110.488;2023-06-10T03:16:28;29.55;;;11.98;;
22883;SDS011;13386;24.786;110.488;2023-06-10T03:19:02;27.30;;;11.88;;
22883;SDS011;13386;24.786;110.488;2023-06-10T03:21:43;26.90;;;12.13;;
22883;SDS011;13386;24.786;110.488;2023-06-10T03:24:17;25.60;;;11.88;;
22883;SDS011;13386;24.786;110.488;2023-06-10T03:26:47;25.48;;;12.30;;
22883;SDS011;13386;24.786;110.488;2023-06-10T03:29:17;23.85;;;11.73;;
22883;SDS011;13386;24.786;110.488;2023-06-10T03:31:48;24.52;;;10.68;;
22883;SDS011;13386;24.786;110.488;2023-06-10T03:34:18;20.85;;;10.68;;
22883;SDS011;13386;24.786;110.488;2023-06-10T03:36:48;21.08;;;10.23;;
22883;SDS011;13386;24.786;110.488;2023-06-10T03:39:20;25.15;;;10.52;;
22883;SDS011;13386;24.786;110.488;2023-06-10T03:41:50;24.30;;;10.70;;
22883;SDS011;13386;24.786;110.488;2023-06-10T03:44:21;26.30;;;10.13;;
22883;SDS011;13386;24.786;110.488;2023-06-10T03:46:51;18.67;;;9.70;;
22883;SDS011;13386;24.786;110.488;2023-06-10T03:49:22;19.42;;;8.10;;
22883;SDS011;13386;24.786;110.488;2023-06-10T03:51:53;11.52;;;7.20;;
22883;SDS011;13386;24.786;110.488;2023-06-10T03:54:28;19.42;;;7.38;;
22883;SDS011;13386;24.786;110.488;2023-06-10T03:56:58;15.52;;;8.07;;
22883;SDS011;13386;24.786;110.488;2023-06-10T03:59:31;18.27;;;8.85;;
22883;SDS011;13386;24.786;110.488;2023-06-10T04:02:03;16.70;;;8.43;;
22883;SDS011;13386;24.786;110.488;2023-06-10T04:04:39;18.90;;;8.40;;
22883;SDS011;13386;24.786;110.488;2023-06-10T04:07:09;16.75;;;8.75;;
22883;SDS011;13386;24.786;110.488;2023-06-10T04:09:45;16.83;;;8.73;;
22883;SDS011;13386;24.786;110.488;2023-06-10T04:12:17;17.50;;;9.43;;
22883;SDS011;13386;24.786;110.488;2023-06-10T04:14:48;17.95;;;8.40;;
22883;SDS011;13386;24.786;110.488;2023-06-10T04:17:20;18.70;;;9.05;;
22883;SDS011;13386;24.786;110.488;2023-06-10T04:19:51;19.60;;;9.43;;
22883;SDS011;13386;24.786;110.488;2023-06-10T04:22:22;18.95;;;9.00;;
22883;SDS011;13386;24.786;110.488;2023-06-10T04:24:55;20.00;;;8.80;;
22883;SDS011;13386;24.786;110.488;2023-06-10T04:27:26;24.52;;;9.95;;
22883;SDS011;13386;24.786;110.488;2023-06-10T04:29:57;16.50;;;8.90;;
22883;SDS011;13386;24.786;110.488;2023-06-10T04:32:28;21.40;;;9.50;;
22883;SDS011;13386;24.786;110.488;2023-06-10T04:34:59;19.05;;;9.10;;
22883;SDS011;13386;24.786;110.488;2023-06-10T04:37:30;16.63;;;8.93;;
22883;SDS011;13386;24.786;110.488;2023-06-10T04:40:05;20.17;;;9.20;;
22883;SDS011;13386;24.786;110.488;2023-06-10T04:42:36;17.77;;;8.48;;
22883;SDS011;13386;24.786;110.488;2023-06-10T04:45:07;17.75;;;9.40;;
22883;SDS011;13386;24.786;110.488;2023-06-10T04:47:40;18.70;;;8.50;;
22883;SDS011;13386;24.786;110.488;2023-06-10T04:50:14;16.70;;;8.15;;
22883;SDS011;13386;24.786;110.488;2023-06-10T04:52:44;16.88;;;8.63;;
22883;SDS011;13386;24.786;110.488;2023-06-10T04:55:20;19.73;;;9.00;;
22883;SDS011;13386;24.786;110.488;2023-06-10T04:57:51;20.55;;;9.48;;
22883;SDS011;13386;24.786;110.488;2023-06-10T05:00:22;18.85;;;9.40;;
22883;SDS011;13386;24.786;110.488;2023-06-10T05:02:55;16.08;;;8.45;;
22883;SDS011;13386;24.786;110.488;2023-06-10T05:05:26;21.15;;;8.93;;
22883;SDS011;13386;24.786;110.488;2023-06-10T05:07:57;21.10;;;8.85;;
22883;SDS011;13386;24.786;110.488;2023-06-10T05:10:29;21.05;;;9.40;;
22883;SDS011;13386;24.786;110.488;2023-06-10T05:13:02;21.65;;;9.75;;
22883;SDS011;13386;24.786;110.488;2023-06-10T05:15:35;19.02;;;9.38;;
22883;SDS011;13386;24.786;110.488;2023-06-10T05:18:09;22.42;;;9.40;;
22883;SDS011;13386;24.786;110.488;2023-06-10T05:20:40;20.48;;;10.15;;
22883;SDS011;13386;24.786;110.488;2023-06-10T05:23:10;20.13;;;10.20;;
22883;SDS011;13386;24.786;110.488;2023-06-10T05:25:45;21.08;;;10.13;;
22883;SDS011;13386;24.786;110.488;2023-06-10T05:28:16;20.77;;;10.20;;
22883;SDS011;13386;24.786;110.488;2023-06-10T05:31:01;25.02;;;10.10;;
22883;SDS011;13386;24.786;110.488;2023-06-10T05:33:32;21.67;;;10.50;;
22883;SDS011;13386;24.786;110.488;2023-06-10T05:36:06;23.13;;;10.85;;
22883;SDS011;13386;24.786;110.488;2023-06-10T05:38:41;23.95;;;11.20;;
22883;SDS011;13386;24.786;110.488;2023-06-10T05:41:18;20.98;;;10.90;;
22883;SDS011;13386;24.786;110.488;2023-06-10T05:43:49;21.38;;;10.70;;
22883;SDS011;13386;24.786;110.488;2023-06-10T05:46:28;20.23;;;11.30;;
22883;SDS011;13386;24.786;110.488;2023-06-10T05:48:59;24.13;;;10.38;;
22883;SDS011;13386;24.786;110.488;2023-06-10T05:51:33;21.10;;;10.80;;
22883;SDS011;13386;24.786;110.488;2023-06-10T05:54:03;24.52;;;12.02;;
22883;SDS011;13386;24.786;110.488;2023-06-10T05:56:37;20.77;;;10.80;;
22883;SDS011;13386;24.786;110.488;2023-06-10T05:59:09;20.25;;;9.90;;
22883;SDS011;13386;24.786;110.488;2023-06-10T06:01:39;21.33;;;10.55;;
22883;SDS011;13386;24.786;110.488;2023-06-10T06:04:12;22.83;;;11.05;;
22883;SDS011;13386;24.786;110.488;2023-06-10T06:06:49;19.08;;;10.35;;
22883;SDS011;13386;24.786;110.488;2023-06-10T06:09:29;20.30;;;10.45;;
22883;SDS011;13386;24.786;110.488;2023-06-10T06:12:04;21.15;;;10.07;;
22883;SDS011;13386;24.786;110.488;2023-06-10T06:14:37;17.05;;;8.55;;
22883;SDS011;13386;24.786;110.488;2023-06-10T06:17:10;16.52;;;8.95;;
22883;SDS011;13386;24.786;110.488;2023-06-10T06:19:48;19.13;;;9.15;;
22883;SDS011;13386;24.786;110.488;2023-06-10T06:22:20;20.58;;;9.30;;
22883;SDS011;13386;24.786;110.488;2023-06-10T06:24:51;16.67;;;8.27;;
22883;SDS011;13386;24.786;110.488;2023-06-10T06:27:23;17.30;;;8.35;;
22883;SDS011;13386;24.786;110.488;2023-06-10T06:29:56;16.25;;;8.23;;
22883;SDS011;13386;24.786;110.488;2023-06-10T06:32:29;19.85;;;9.75;;
22883;SDS011;13386;24.786;110.488;2023-06-10T06:35:00;18.15;;;9.82;;
22883;SDS011;13386;24.786;110.488;2023-06-10T06:37:31;21.05;;;9.70;;
22883;SDS011;13386;24.786;110.488;2023-06-10T06:40:19;18.27;;;9.23;;
22883;SDS011;13386;24.786;110.488;2023-06-10T06:42:54;19.27;;;9.23;;
22883;SDS011;13386;24.786;110.488;2023-06-10T06:45:47;15.48;;;8.70;;
22883;SDS011;13386;24.786;110.488;2023-06-10T06:48:21;20.42;;;9.23;;
22883;SDS011;13386;24.786;110.488;2023-06-10T06:50:54;22.80;;;8.95;;
22883;SDS011;13386;24.786;110.488;2023-06-10T06:53:27;21.10;;;9.73;;
22883;SDS011;13386;24.786;110.488;2023-06-10T06:56:01;19.67;;;9.45;;
22883;SDS011;13386;24.786;110.488;2023-06-10T06:58:33;18.58;;;8.82;;
22883;SDS011;13386;24.786;110.488;2023-06-10T07:01:34;16.02;;;7.82;;
22883;SDS011;13386;24.786;110.488;2023-06-10T07:04:07;16.98;;;8.23;;
22883;SDS011;13386;24.786;110.488;2023-06-10T07:06:38;16.00;;;7.82;;
22883;SDS011;13386;24.786;110.488;2023-06-10T07:09:17;15.80;;;7.63;;
22883;SDS011;13386;24.786;110.488;2023-06-10T07:11:51;17.67;;;7.93;;
22883;SDS011;13386;24.786;110.488;2023-06-10T07:14:26;14.30;;;7.72;;
22883;SDS011;13386;24.786;110.488;2023-06-10T07:17:16;15.35;;;7.80;;
22883;SDS011;13386;24.786;110.488;2023-06-10T07:19:47;16.33;;;7.50;;
22883;SDS011;13386;24.786;110.488;2023-06-10T07:22:21;16.33;;;7.28;;
22883;SDS011;13386;24.786;110.488;2023-06-10T07:25:17;15.35;;;7.53;;
22883;SDS011;13386;24.786;110.488;2023-06-10T07:27:50;15.63;;;7.30;;
22883;SDS011;13386;24.786;110.488;2023-06-10T07:30:23;15.40;;;7.65;;
22883;SDS011;13386;24.786;110.488;2023-06-10T07:33:01;16.67;;;7.63;;
22883;SDS011;13386;24.786;110.488;2023-06-10T07:35:40;18.30;;;8.00;;
22883;SDS011;13386;24.786;110.488;2023-06-10T07:38:17;14.93;;;7.50;;
22883;SDS011;13386;24.786;110.488;2023-06-10T07:40:48;22.83;;;8.07;;
22883;SDS011;13386;24.786;110.488;2023-06-10T07:43:18;15.18;;;7.13;;
22883;SDS011;13386;24.786;110.488;2023-06-10T07:45:52;19.25;;;7.45;;
22883;SDS011;13386;24.786;110.488;2023-06-10T07:48:27;17.02;;;7.72;;
22883;SDS011;13386;24.786;110.488;2023-06-10T07:51:00;14.35;;;7.65;;
22883;SDS011;13386;24.786;110.488;2023-06-10T07:53:34;18.40;;;7.82;;
22883;SDS011;13386;24.786;110.488;2023-06-10T07:56:04;21.15;;;8.30;;
22883;SDS011;13386;24.786;110.488;2023-06-10T07:58:35;19.17;;;8.50;;
22883;SDS011;13386;24.786;110.488;2023-06-10T08:01:12;18.83;;;9.27;;
22883;SDS011;13386;24.786;110.488;2023-06-10T08:03:42;21.05;;;9.77;;
22883;SDS011;13386;24.786;110.488;2023-06-10T08:06:15;20.23;;;9.38;;
22883;SDS011;13386;24.786;110.488;2023-06-10T08:08:49;18.58;;;9.20;;
22883;SDS011;13386;24.786;110.488;2023-06-10T08:11:20;22.25;;;10.35;;
22883;SDS011;13386;24.786;110.488;2023-06-10T08:13:55;24.23;;;10.75;;
22883;SDS011;13386;24.786;110.488;2023-06-10T08:16:41;22.98;;;11.57;;
22883;SDS011;13386;24.786;110.488;2023-06-10T08:19:11;24.88;;;11.95;;
22883;SDS011;13386;24.786;110.488;2023-06-10T08:21:46;26.25;;;12.07;;
22883;SDS011;13386;24.786;110.488;2023-06-10T08:24:16;24.17;;;11.27;;
22883;SDS011;13386;24.786;110.488;2023-06-10T08:26:48;27.25;;;11.55;;
22883;SDS011;13386;24.786;110.488;2023-06-10T08:29:21;26.25;;;11.98;;
22883;SDS011;13386;24.786;110.488;2023-06-10T08:31:53;23.30;;;10.75;;
22883;SDS011;13386;24.786;110.488;2023-06-10T08:34:25;28.80;;;12.02;;
22883;SDS011;13386;24.786;110.488;2023-06-10T08:36:55;24.02;;;11.88;;
22883;SDS011;13386;24.786;110.488;2023-06-10T08:39:26;25.88;;;11.65;;
22883;SDS011;13386;24.786;110.488;2023-06-10T08:42:03;25.20;;;11.50;;
22883;SDS011;13386;24.786;110.488;2023-06-10T08:44:35;28.17;;;11.75;;
22883;SDS011;13386;24.786;110.488;2023-06-10T08:47:12;26.52;;;12.02;;
22883;SDS011;13386;24.786;110.488;2023-06-10T08:49:49;22.08;;;11.02;;
22883;SDS011;13386;24.786;110.488;2023-06-10T08:52:22;23.55;;;11.23;;
22883;SDS011;13386;24.786;110.488;2023-06-10T08:54:56;21.52;;;10.40;;
22883;SDS011;13386;24.786;110.488;2023-06-10T08:57:28;27.20;;;11.45;;
22883;SDS011;13386;24.786;110.488;2023-06-10T09:00:03;23.67;;;11.20;;
22883;SDS011;13386;24.786;110.488;2023-06-10T09:02:37;22.48;;;11.25;;
22883;SDS011;13386;24.786;110.488;2023-06-10T09:05:09;25.20;;;11.27;;
22883;SDS011;13386;24.786;110.488;2023-06-10T09:07:41;24.67;;;10.95;;
22883;SDS011;13386;24.786;110.488;2023-06-10T09:10:14;23.15;;;11.05;;
22883;SDS011;13386;24.786;110.488;2023-06-10T09:12:47;23.42;;;10.98;;
22883;SDS011;13386;24.786;110.488;2023-06-10T09:15:18;26.13;;;11.95;;
22883;SDS011;13386;24.786;110.488;2023-06-10T09:17:51;25.25;;;11.30;;
22883;SDS011;13386;24.786;110.488;2023-06-10T09:20:23;24.38;;;12.20;;
22883;SDS011;13386;24.786;110.488;2023-06-10T09:22:53;25.98;;;11.85;;
22883;SDS011;13386;24.786;110.488;2023-06-10T09:25:33;24.50;;;11.07;;
22883;SDS011;13386;24.786;110.488;2023-06-10T09:28:12;27.10;;;11.95;;
22883;SDS011;13386;24.786;110.488;2023-06-10T09:30:46;29.02;;;12.20;;
22883;SDS011;13386;24.786;110.488;2023-06-10T09:33:18;24.58;;;10.95;;
22883;SDS011;13386;24.786;110.488;2023-06-10T09:35:49;31.80;;;12.88;;
22883;SDS011;13386;24.786;110.488;2023-06-10T09:38:22;25.07;;;12.00;;
22883;SDS011;13386;24.786;110.488;2023-06-10T09:40:53;23.98;;;12.40;;
22883;SDS011;13386;24.786;110.488;2023-06-10T09:43:37;26.58;;;12.23;;
22883;SDS011;13386;24.786;110.488;2023-06-10T09:46:14;29.98;;;12.77;;
22883;SDS011;13386;24.786;110.488;2023-06-10T09:48:47;27.42;;;12.57;;
22883;SDS011;13386;24.786;110.488;2023-06-10T09:51:18;25.30;;;12.30;;
22883;SDS011;13386;24.786;110.488;2023-06-10T09:53:51;31.23;;;12.40;;
22883;SDS011;13386;24.786;110.488;2023-06-10T09:56:21;28.63;;;12.55;;
22883;SDS011;13386;24.786;110.488;2023-06-10T09:59:03;28.98;;;12.77;;
22883;SDS011;13386;24.786;110.488;2023-06-10T10:01:44;31.38;;;12.88;;
22883;SDS011;13386;24.786;110.488;2023-06-10T10:04:27;29.00;;;13.15;;
22883;SDS011;13386;24.786;110.488;2023-06-10T10:07:03;31.73;;;13.57;;
22883;SDS011;13386;24.786;110.488;2023-06-10T10:09:35;36.97;;;14.18;;
22883;SDS011;13386;24.786;110.488;2023-06-10T10:12:07;29.90;;;12.65;;
22883;SDS011;13386;24.786;110.488;2023-06-10T10:14:39;31.98;;;13.90;;
22883;SDS011;13386;24.786;110.488;2023-06-10T10:17:12;26.95;;;13.00;;
22883;SDS011;13386;24.786;110.488;2023-06-10T10:19:48;45.00;;;15.20;;
22883;SDS011;13386;24.786;110.488;2023-06-10T10:22:19;80.05;;;18.98;;
22883;SDS011;13386;24.786;110.488;2023-06-10T10:24:53;67.32;;;17.90;;
22883;SDS011;13386;24.786;110.488;2023-06-10T10:27:28;48.55;;;15.38;;
22883;SDS011;13386;24.786;110.488;2023-06-10T10:30:00;42.25;;;15.55;;
22883;SDS011;13386;24.786;110.488;2023-06-10T10:32:35;33.33;;;13.95;;
22883;SDS011;13386;24.786;110.488;2023-06-10T10:35:10;48.72;;;15.60;;
22883;SDS011;13386;24.786;110.488;2023-06-10T10:37:42;40.15;;;14.65;;
22883;SDS011;13386;24.786;110.488;2023-06-10T10:40:16;34.25;;;13.90;;
22883;SDS011;13386;24.786;110.488;2023-06-10T10:42:47;35.85;;;14.88;;
22883;SDS011;13386;24.786;110.488;2023-06-10T10:45:19;45.58;;;18.92;;
22883;SDS011;13386;24.786;110.488;2023-06-10T10:47:52;41.53;;;16.25;;
22883;SDS011;13386;24.786;110.488;2023-06-10T10:50:26;42.10;;;15.82;;
22883;SDS011;13386;24.786;110.488;2023-06-10T10:55:28;41.83;;;15.15;;
22883;SDS011;13386;24.786;110.488;2023-06-10T10:58:03;37.67;;;14.85;;
22883;SDS011;13386;24.786;110.488;2023-06-10T11:00:33;41.42;;;16.55;;
22883;SDS011;13386;24.786;110.488;2023-06-10T11:03:06;35.88;;;15.60;;
22883;SDS011;13386;24.786;110.488;2023-06-10T11:05:40;41.53;;;15.23;;
22883;SDS011;13386;24.786;110.488;2023-06-10T11:08:15;34.30;;;14.25;;
22883;SDS011;13386;24.786;110.488;2023-06-10T11:10:51;37.97;;;15.15;;
22883;SDS011;13386;24.786;110.488;2023-06-10T11:13:21;33.65;;;14.50;;
22883;SDS011;13386;24.786;110.488;2023-06-10T11:15:57;31.55;;;13.98;;
22883;SDS011;13386;24.786;110.488;2023-06-10T11:18:27;40.08;;;15.10;;
22883;SDS011;13386;24.786;110.488;2023-06-10T11:21:10;35.40;;;13.82;;
22883;SDS011;13386;24.786;110.488;2023-06-10T11:23:41;36.10;;;14.10;;
22883;SDS011;13386;24.786;110.488;2023-06-10T11:26:21;32.35;;;13.73;;
22883;SDS011;13386;24.786;110.488;2023-06-10T11:29:03;38.38;;;14.45;;
22883;SDS011;13386;24.786;110.488;2023-06-10T11:31:38;38.35;;;13.70;;
22883;SDS011;13386;24.786;110.488;2023-06-10T11:34:08;33.00;;;13.88;;
22883;SDS011;13386;24.786;110.488;2023-06-10T11:36:41;37.03;;;13.93;;
22883;SDS011;13386;24.786;110.488;2023-06-10T11:39:12;30.08;;;13.82;;
22883;SDS011;13386;24.786;110.488;2023-06-10T11:41:42;30.75;;;13.85;;
22883;SDS011;13386;24.786;110.488;2023-06-10T11:44:14;28.75;;;12.70;;
22883;SDS011;13386;24.786;110.488;2023-06-10T11:46:44;32.63;;;13.20;;
22883;SDS011;13386;24.786;110.488;2023-06-10T11:49:14;34.60;;;13.68;;
22883;SDS011;13386;24.786;110.488;2023-06-10T11:51:50;35.85;;;14.27;;
22883;SDS011;13386;24.786;110.488;2023-06-10T11:54:23;31.92;;;13.30;;
22883;SDS011;13386;24.786;110.488;2023-06-10T11:56:57;28.88;;;12.88;;
22883;SDS011;13386;24.786;110.488;2023-06-10T11:59:39;35.63;;;13.55;;
22883;SDS011;13386;24.786;110.488;2023-06-10T12:02:14;29.98;;;13.40;;
22883;SDS011;13386;24.786;110.488;2023-06-10T12:04:45;32.45;;;13.38;;
22883;SDS011;13386;24.786;110.488;2023-06-10T12:07:22;36.28;;;13.52;;
22883;SDS011;13386;24.786;110.488;2023-06-10T12:09:58;31.67;;;14.05;;
22883;SDS011;13386;24.786;110.488;2023-06-10T12:12:30;30.95;;;13.32;;
22883;SDS011;13386;24.786;110.488;2023-06-10T12:15:01;31.00;;;12.90;;
22883;SDS011;13386;24.786;110.488;2023-06-10T12:17:39;28.97;;;12.90;;
22883;SDS011;13386;24.786;110.488;2023-06-10T12:20:24;29.10;;;12.07;;
22883;SDS011;13386;24.786;110.488;2023-06-10T12:22:56;31.67;;;12.70;;
22883;SDS011;13386;24.786;110.488;2023-06-10T12:25:28;34.85;;;13.68;;
22883;SDS011;13386;24.786;110.488;2023-06-10T12:27:58;30.73;;;13.77;;
22883;SDS011;13386;24.786;110.488;2023-06-10T12:30:29;38.70;;;15.43;;
22883;SDS011;13386;24.786;110.488;2023-06-10T12:33:16;36.67;;;13.82;;
22883;SDS011;13386;24.786;110.488;2023-06-10T12:35:51;34.30;;;14.60;;
22883;SDS011;13386;24.786;110.488;2023-06-10T12:38:25;40.13;;;14.93;;
22883;SDS011;13386;24.786;110.488;2023-06-10T12:41:01;32.58;;;14.70;;
22883;SDS011;13386;24.786;110.488;2023-06-10T12:43:32;35.25;;;13.88;;
22883;SDS011;13386;24.786;110.488;2023-06-10T12:46:12;32.55;;;13.65;;
22883;SDS011;13386;24.786;110.488;2023-06-10T12:48:49;36.97;;;13.90;;
22883;SDS011;13386;24.786;110.488;2023-06-10T12:51:21;30.05;;;13.38;;
22883;SDS011;13386;24.786;110.488;2023-06-10T12:53:56;33.95;;;13.95;;
22883;SDS011;13386;24.786;110.488;2023-06-10T12:56:35;32.63;;;14.07;;
22883;SDS011;13386;24.786;110.488;2023-06-10T12:59:08;36.70;;;14.88;;
22883;SDS011;13386;24.786;110.488;2023-06-10T13:01:49;37.45;;;15.48;;
22883;SDS011;13386;24.786;110.488;2023-06-10T13:04:24;34.88;;;14.48;;
22883;SDS011;13386;24.786;110.488;2023-06-10T13:06:54;41.85;;;15.38;;
22883;SDS011;13386;24.786;110.488;2023-06-10T13:09:29;43.78;;;15.13;;
22883;SDS011;13386;24.786;110.488;2023-06-10T13:12:00;33.88;;;14.75;;
22883;SDS011;13386;24.786;110.488;2023-06-10T13:14:35;40.60;;;15.35;;
22883;SDS011;13386;24.786;110.488;2023-06-10T13:17:07;33.90;;;14.95;;
22883;SDS011;13386;24.786;110.488;2023-06-10T13:19:39;37.85;;;14.63;;
22883;SDS011;13386;24.786;110.488;2023-06-10T13:24:46;35.35;;;13.98;;
22883;SDS011;13386;24.786;110.488;2023-06-10T13:27:16;40.85;;;14.15;;
22883;SDS011;13386;24.786;110.488;2023-06-10T13:29:46;44.03;;;14.93;;
22883;SDS011;13386;24.786;110.488;2023-06-10T13:32:19;36.78;;;15.48;;
22883;SDS011;13386;24.786;110.488;2023-06-10T13:34:51;41.55;;;15.15;;
22883;SDS011;13386;24.786;110.488;2023-06-10T13:37:22;41.20;;;14.90;;
22883;SDS011;13386;24.786;110.488;2023-06-10T13:39:54;41.40;;;15.52;;
22883;SDS011;13386;24.786;110.488;2023-06-10T13:42:26;35.22;;;14.50;;
22883;SDS011;13386;24.786;110.488;2023-06-10T13:44:58;37.53;;;14.32;;
22883;SDS011;13386;24.786;110.488;2023-06-10T13:47:33;42.00;;;15.20;;
22883;SDS011;13386;24.786;110.488;2023-06-10T13:50:04;46.95;;;16.63;;
22883;SDS011;13386;24.786;110.488;2023-06-10T13:52:35;40.13;;;14.80;;
22883;SDS011;13386;24.786;110.488;2023-06-10T13:55:07;43.58;;;15.68;;
22883;SDS011;13386;24.786;110.488;2023-06-10T13:57:44;37.72;;;15.02;;
22883;SDS011;13386;24.786;110.488;2023-06-10T14:00:15;44.13;;;15.55;;
22883;SDS011;13386;24.786;110.488;2023-06-10T14:02:46;42.25;;;15.23;;
22883;SDS011;13386;24.786;110.488;2023-06-10T14:05:20;35.17;;;14.20;;
22883;SDS011;13386;24.786;110.488;2023-06-10T14:07:53;39.45;;;15.82;;
22883;SDS011;13386;24.786;110.488;2023-06-10T14:10:25;49.88;;;18.95;;
22883;SDS011;13386;24.786;110.488;2023-06-10T14:12:55;49.65;;;18.23;;
22883;SDS011;13386;24.786;110.488;2023-06-10T14:15:27;50.42;;;19.08;;
22883;SDS011;13386;24.786;110.488;2023-06-10T14:17:57;47.05;;;18.38;;
22883;SDS011;13386;24.786;110.488;2023-06-10T14:20:28;49.17;;;18.70;;
22883;SDS011;13386;24.786;110.488;2023-06-10T14:22:59;49.60;;;18.48;;
22883;SDS011;13386;24.786;110.488;2023-06-10T14:25:33;49.70;;;17.83;;
22883;SDS011;13386;24.786;110.488;2023-06-10T14:28:04;45.58;;;16.35;;
22883;SDS011;13386;24.786;110.488;2023-06-10T14:30:34;41.08;;;15.68;;
22883;SDS011;13386;24.786;110.488;2023-06-10T14:33:07;39.92;;;15.85;;
22883;SDS011;13386;24.786;110.488;2023-06-10T14:38:13;41.10;;;15.73;;
22883;SDS011;13386;24.786;110.488;2023-06-10T14:40:50;37.53;;;15.70;;
22883;SDS011;13386;24.786;110.488;2023-06-10T14:43:21;38.47;;;14.85;;